createdAt,value
2019-02-17T00:00:35.863Z,3.70
2019-02-17T00:03:05.431Z,3.60
2019-02-17T00:05:34.945Z,3.50
2019-02-17T00:08:04.942Z,3.40
2019-02-17T00:10:34.431Z,3.40
2019-02-17T00:13:03.934Z,3.30
2019-02-17T00:15:34.473Z,3.30
2019-02-17T00:18:03.998Z,3.20
2019-02-17T00:20:33.514Z,3.20
2019-02-17T00:23:03.019Z,3.20
2019-02-17T00:25:32.533Z,3.10
2019-02-17T00:28:02.045Z,3.10
2019-02-17T00:30:31.629Z,3.10
2019-02-17T00:33:07.997Z,3.00
2019-02-17T00:35:55.458Z,3.00
2019-02-17T00:38:38.132Z,3.00
2019-02-17T00:41:10.137Z,2.90
2019-02-17T00:43:49.249Z,2.80
2019-02-17T00:46:24.608Z,2.80
2019-02-17T00:48:54.204Z,2.80
2019-02-17T00:51:29.381Z,2.70
2019-02-17T00:54:11.730Z,2.70
2019-02-17T00:56:41.266Z,2.60
2019-02-17T00:59:12.752Z,2.60
2019-02-17T01:01:44.175Z,2.60
2019-02-17T01:04:14.620Z,2.60
2019-02-17T01:06:44.170Z,2.60
2019-02-17T01:09:14.678Z,2.50
2019-02-17T01:11:44.220Z,2.50
2019-02-17T01:14:13.773Z,2.40
2019-02-17T01:16:43.325Z,2.40
2019-02-17T01:19:12.824Z,2.40
2019-02-17T01:21:43.337Z,2.30
2019-02-17T01:24:12.859Z,2.30
2019-02-17T01:26:42.365Z,2.20
2019-02-17T01:29:20.057Z,2.20
2019-02-17T01:31:43.086Z,2.10
2019-02-17T01:34:12.669Z,2.10
2019-02-17T01:36:42.221Z,2.10
2019-02-17T01:39:11.707Z,2.00
2019-02-17T01:41:41.245Z,2.00
2019-02-17T01:44:10.737Z,2.00
2019-02-17T01:46:40.262Z,2.00
2019-02-17T01:49:09.960Z,1.90
2019-02-17T01:51:39.459Z,1.90
2019-02-17T01:54:08.962Z,1.90
2019-02-17T01:56:38.503Z,1.90
2019-02-17T01:59:08.021Z,1.90
2019-02-17T02:01:37.532Z,1.90
2019-02-17T02:04:07.072Z,1.90
2019-02-17T02:06:36.571Z,2.00
2019-02-17T02:09:08.949Z,2.00
2019-02-17T02:11:38.522Z,2.10
2019-02-17T02:14:08.012Z,2.20
2019-02-17T02:16:37.541Z,2.30
2019-02-17T02:19:07.039Z,2.40
2019-02-17T02:21:36.546Z,2.50
2019-02-17T02:24:06.080Z,2.50
2019-02-17T02:26:35.584Z,2.50
2019-02-17T02:29:05.085Z,2.50
2019-02-17T02:31:35.819Z,2.50
2019-02-17T02:34:05.400Z,2.40
2019-02-17T02:36:34.921Z,2.30
2019-02-17T02:39:05.702Z,2.20
2019-02-17T02:41:35.309Z,2.20
2019-02-17T02:44:05.037Z,2.20
2019-02-17T02:46:34.571Z,2.10
2019-02-17T02:49:04.073Z,2.10
2019-02-17T02:51:33.580Z,2.10
2019-02-17T02:54:03.135Z,2.10
2019-02-17T02:56:32.664Z,2.00
2019-02-17T02:59:02.185Z,2.00
2019-02-17T03:01:31.687Z,2.00
2019-02-17T03:04:01.244Z,1.90
2019-02-17T03:06:35.306Z,1.90
2019-02-17T03:09:06.019Z,1.90
2019-02-17T03:11:35.560Z,1.90
2019-02-17T03:14:05.068Z,1.80
2019-02-17T03:16:34.610Z,1.80
2019-02-17T03:19:04.105Z,1.80
2019-02-17T03:21:33.988Z,1.80
2019-02-17T03:24:03.861Z,1.80
2019-02-17T03:26:33.398Z,1.80
2019-02-17T03:29:02.919Z,1.80
2019-02-17T03:31:32.448Z,1.80
2019-02-17T03:34:02.020Z,1.80
2019-02-17T03:36:31.589Z,1.70
2019-02-17T03:39:01.100Z,1.70
2019-02-17T03:41:30.753Z,1.70
2019-02-17T03:44:00.577Z,1.70
2019-02-17T03:46:30.081Z,1.70
2019-02-17T03:49:00.626Z,1.60
2019-02-17T03:51:30.157Z,1.60
2019-02-17T03:53:59.677Z,1.60
2019-02-17T03:56:29.180Z,1.60
2019-02-17T03:58:58.705Z,1.60
2019-02-17T04:01:28.224Z,1.50
2019-02-17T04:03:57.755Z,1.50
2019-02-17T04:06:27.294Z,1.50
2019-02-17T04:08:57.256Z,1.50
2019-02-17T04:11:26.842Z,1.50
2019-02-17T04:13:56.351Z,1.50
2019-02-17T04:16:25.855Z,1.50
2019-02-17T04:18:55.345Z,1.50
2019-02-17T04:21:25.150Z,1.40
2019-02-17T04:23:54.693Z,1.40
2019-02-17T04:26:24.283Z,1.40
2019-02-17T04:28:53.801Z,1.40
2019-02-17T04:31:23.295Z,1.30
2019-02-17T04:33:52.801Z,1.30
2019-02-17T04:36:22.358Z,1.30
2019-02-17T04:38:51.906Z,1.20
2019-02-17T04:41:21.423Z,1.20
2019-02-17T04:43:50.923Z,1.20
2019-02-17T04:46:20.433Z,1.20
2019-02-17T04:48:49.968Z,1.20
2019-02-17T04:51:19.531Z,1.20
2019-02-17T04:53:49.076Z,1.20
2019-02-17T04:56:18.611Z,1.20
2019-02-17T04:58:48.131Z,1.20
2019-02-17T05:01:17.645Z,1.10
2019-02-17T05:03:47.164Z,1.10
2019-02-17T05:06:16.954Z,1.10
2019-02-17T05:08:46.450Z,1.10
2019-02-17T05:11:15.958Z,1.10
2019-02-17T05:13:45.482Z,1.10
2019-02-17T05:16:15.022Z,1.10
2019-02-17T05:18:44.620Z,1.10
2019-02-17T05:21:14.350Z,1.10
2019-02-17T05:23:43.870Z,1.10
2019-02-17T05:26:13.412Z,1.10
2019-02-17T05:28:42.921Z,1.10
2019-02-17T05:31:12.423Z,1.10
2019-02-17T05:33:43.536Z,1.10
2019-02-17T05:36:13.068Z,1.10
2019-02-17T05:38:42.624Z,1.00
2019-02-17T05:41:12.160Z,1.00
2019-02-17T05:43:41.712Z,0.90
2019-02-17T05:46:11.209Z,0.90
2019-02-17T05:48:40.703Z,0.90
2019-02-17T05:51:10.245Z,0.80
2019-02-17T05:53:40.703Z,0.80
2019-02-17T05:56:10.348Z,0.80
2019-02-17T05:58:39.878Z,0.80
2019-02-17T06:01:09.386Z,0.80
2019-02-17T06:03:38.889Z,0.80
2019-02-17T06:06:08.425Z,0.80
2019-02-17T06:08:37.928Z,0.70
2019-02-17T06:11:07.437Z,0.70
2019-02-17T06:13:36.956Z,0.70
2019-02-17T06:16:07.398Z,0.70
2019-02-17T06:18:36.906Z,0.60
2019-02-17T06:21:06.429Z,0.60
2019-02-17T06:23:35.927Z,0.60
2019-02-17T06:26:05.439Z,0.60
2019-02-17T06:28:34.960Z,0.60
2019-02-17T06:31:13.762Z,0.60
2019-02-17T06:33:36.057Z,0.60
2019-02-17T06:36:05.550Z,0.50
2019-02-17T06:38:35.089Z,0.60
2019-02-17T06:41:04.831Z,0.60
2019-02-17T06:43:34.330Z,0.50
2019-02-17T06:46:03.904Z,0.50
2019-02-17T06:48:33.470Z,0.50
2019-02-17T06:51:03.448Z,0.50
2019-02-17T06:53:33.041Z,0.50
2019-02-17T06:56:08.973Z,0.50
2019-02-17T06:58:38.125Z,0.50
2019-02-17T07:01:08.212Z,0.50
2019-02-17T07:03:37.740Z,0.60
2019-02-17T07:06:08.997Z,0.60
2019-02-17T07:08:38.572Z,0.60
2019-02-17T07:11:08.050Z,0.60
2019-02-17T07:13:37.567Z,0.60
2019-02-17T07:16:07.157Z,0.60
2019-02-17T07:18:36.651Z,0.60
2019-02-17T07:21:06.187Z,0.60
2019-02-17T07:23:35.686Z,0.70
2019-02-17T07:26:05.176Z,0.70
2019-02-17T07:28:34.786Z,0.80
2019-02-17T07:31:04.267Z,0.80
2019-02-17T07:33:33.792Z,0.80
2019-02-17T07:36:03.453Z,0.90
2019-02-17T07:38:33.056Z,0.90
2019-02-17T07:41:02.664Z,1.00
2019-02-17T07:43:33.243Z,1.10
2019-02-17T07:46:02.793Z,1.20
2019-02-17T07:48:32.405Z,1.20
2019-02-17T07:51:01.946Z,1.20
2019-02-17T07:53:31.564Z,1.30
2019-02-17T07:56:01.045Z,1.30
2019-02-17T07:58:30.558Z,1.40
2019-02-17T08:01:00.124Z,1.50
2019-02-17T08:03:30.672Z,1.60
2019-02-17T08:06:00.213Z,1.70
2019-02-17T08:08:29.745Z,1.80
2019-02-17T08:11:03.999Z,1.90
2019-02-17T08:13:30.522Z,2.10
2019-02-17T08:16:00.036Z,2.20
2019-02-17T08:18:29.612Z,2.40
2019-02-17T08:20:59.113Z,2.50
2019-02-17T08:23:28.657Z,2.70
2019-02-17T08:25:58.215Z,2.90
2019-02-17T08:28:27.709Z,3.00
2019-02-17T08:30:57.193Z,3.20
2019-02-17T08:33:26.725Z,3.30
2019-02-17T08:35:56.231Z,3.50
2019-02-17T08:38:25.707Z,3.60
2019-02-17T08:40:55.240Z,3.80
2019-02-17T08:43:24.722Z,3.90
2019-02-17T08:45:54.218Z,4.00
2019-02-17T08:48:23.737Z,4.20
2019-02-17T08:50:53.236Z,4.30
2019-02-17T08:53:22.738Z,4.50
2019-02-17T08:55:52.266Z,4.70
2019-02-17T08:58:21.761Z,5.00
2019-02-17T09:00:51.268Z,5.20
2019-02-17T09:03:20.895Z,5.50
2019-02-17T09:05:50.381Z,5.70
2019-02-17T09:08:19.871Z,5.90
2019-02-17T09:10:49.400Z,6.10
2019-02-17T09:13:18.937Z,6.30
2019-02-17T09:15:48.460Z,6.50
2019-02-17T09:18:17.977Z,6.70
2019-02-17T09:20:47.653Z,7.00
2019-02-17T09:23:17.396Z,7.30
2019-02-17T09:25:46.906Z,7.40
2019-02-17T09:28:16.384Z,7.70
2019-02-17T09:30:46.074Z,7.90
2019-02-17T09:33:15.728Z,8.10
2019-02-17T09:35:45.274Z,8.30
2019-02-17T09:38:17.107Z,8.50
2019-02-17T09:40:46.169Z,8.70
2019-02-17T09:43:15.669Z,8.80
2019-02-17T09:45:46.153Z,9.00
2019-02-17T09:48:15.681Z,9.20
2019-02-17T09:50:45.230Z,9.30
2019-02-17T09:53:14.817Z,9.50
2019-02-17T09:55:44.312Z,9.80
2019-02-17T09:58:13.807Z,10.00
2019-02-17T10:00:43.345Z,10.10
2019-02-17T10:03:13.004Z,10.40
2019-02-17T10:05:42.548Z,10.50
2019-02-17T10:08:12.177Z,10.80
2019-02-17T10:10:41.756Z,11.00
2019-02-17T10:13:11.318Z,11.20
2019-02-17T10:15:41.047Z,11.40
2019-02-17T10:18:10.550Z,11.60
2019-02-17T10:20:40.113Z,11.80
2019-02-17T10:23:09.620Z,11.90
2019-02-17T10:25:39.171Z,12.00
2019-02-17T10:28:08.665Z,12.20
2019-02-17T10:30:38.178Z,12.20
2019-02-17T10:33:07.680Z,12.40
2019-02-17T10:35:37.173Z,12.60
2019-02-17T10:38:07.598Z,12.80
2019-02-17T10:40:37.155Z,13.00
2019-02-17T10:43:06.703Z,13.20
2019-02-17T10:45:36.251Z,13.20
2019-02-17T10:48:05.922Z,13.20
2019-02-17T10:50:35.496Z,13.20
2019-02-17T10:53:05.006Z,13.40
2019-02-17T10:55:34.675Z,13.50
2019-02-17T10:58:04.232Z,13.70
2019-02-17T11:00:33.783Z,13.80
2019-02-17T11:03:07.930Z,14.00
2019-02-17T11:05:37.492Z,14.10
2019-02-17T11:08:07.023Z,14.20
2019-02-17T11:10:36.521Z,14.30
2019-02-17T11:13:06.115Z,14.50
2019-02-17T11:15:35.685Z,14.60
2019-02-17T11:18:05.279Z,14.70
2019-02-17T11:20:34.800Z,14.80
2019-02-17T11:23:04.380Z,14.70
2019-02-17T11:25:33.940Z,14.80
2019-02-17T11:28:05.227Z,14.90
2019-02-17T11:30:34.795Z,15.00
2019-02-17T11:33:04.398Z,15.00
2019-02-17T11:35:33.937Z,15.00
2019-02-17T11:38:03.452Z,15.10
2019-02-17T11:40:33.014Z,15.20
2019-02-17T11:43:02.543Z,15.20
2019-02-17T11:45:32.158Z,15.30
2019-02-17T11:48:01.666Z,15.40
2019-02-17T11:50:31.202Z,15.50
2019-02-17T11:53:00.709Z,15.60
2019-02-17T11:55:30.252Z,15.70
2019-02-17T11:57:59.762Z,15.90
2019-02-17T12:00:29.336Z,16.00
2019-02-17T12:03:07.507Z,16.10
2019-02-17T12:05:30.573Z,16.20
2019-02-17T12:08:00.092Z,16.10
2019-02-17T12:10:29.662Z,16.20
2019-02-17T12:12:59.220Z,16.20
2019-02-17T12:15:28.819Z,16.30
2019-02-17T12:17:59.310Z,16.40
2019-02-17T12:20:42.752Z,16.30
2019-02-17T12:23:13.944Z,16.30
2019-02-17T12:25:51.071Z,16.50
2019-02-17T12:28:22.245Z,16.60
2019-02-17T12:30:52.256Z,16.50
2019-02-17T12:33:22.077Z,16.60
2019-02-17T12:35:51.862Z,16.50
2019-02-17T12:38:21.373Z,16.50
2019-02-17T12:40:50.878Z,16.40
2019-02-17T12:43:20.395Z,16.50
2019-02-17T12:45:50.903Z,16.60
2019-02-17T12:48:20.474Z,16.70
2019-02-17T12:50:50.043Z,16.70
2019-02-17T12:53:19.546Z,16.80
2019-02-17T12:55:49.074Z,16.80
2019-02-17T12:58:20.145Z,16.90
2019-02-17T13:00:49.858Z,16.90
2019-02-17T13:03:28.269Z,16.90
2019-02-17T13:05:50.602Z,16.80
2019-02-17T13:08:20.116Z,16.90
2019-02-17T13:10:49.661Z,16.90
2019-02-17T13:13:20.164Z,16.90
2019-02-17T13:15:49.717Z,16.90
2019-02-17T13:18:19.200Z,16.90
2019-02-17T13:20:48.746Z,17.00
2019-02-17T13:23:18.280Z,17.10
2019-02-17T13:25:47.794Z,17.00
2019-02-17T13:28:17.305Z,17.00
2019-02-17T13:30:47.026Z,17.00
2019-02-17T13:33:16.647Z,16.90
2019-02-17T13:35:46.179Z,16.90
2019-02-17T13:38:15.696Z,17.00
2019-02-17T13:40:45.200Z,17.00
2019-02-17T13:43:14.752Z,17.00
2019-02-17T13:45:46.036Z,17.00
2019-02-17T13:48:15.538Z,17.00
2019-02-17T13:50:45.034Z,17.00
2019-02-17T13:53:14.552Z,17.10
2019-02-17T13:55:44.060Z,17.10
2019-02-17T13:58:13.580Z,17.00
2019-02-17T14:00:43.191Z,17.10
2019-02-17T14:03:12.674Z,17.20
2019-02-17T14:05:42.168Z,17.20
2019-02-17T14:08:11.702Z,17.30
2019-02-17T14:10:41.283Z,17.40
2019-02-17T14:13:10.798Z,17.40
2019-02-17T14:15:40.484Z,17.30
2019-02-17T14:18:10.019Z,17.20
2019-02-17T14:20:39.521Z,17.20
2019-02-17T14:23:09.075Z,17.20
2019-02-17T14:25:38.837Z,17.20
2019-02-17T14:28:08.343Z,17.10
2019-02-17T14:30:37.870Z,17.10
2019-02-17T14:33:07.421Z,17.30
2019-02-17T14:35:36.954Z,17.20
2019-02-17T14:38:06.457Z,17.20
2019-02-17T14:40:35.959Z,17.20
2019-02-17T14:43:05.577Z,17.30
2019-02-17T14:45:35.092Z,17.30
2019-02-17T14:48:04.595Z,17.30
2019-02-17T14:50:34.129Z,17.30
2019-02-17T14:53:03.815Z,17.30
2019-02-17T14:55:34.358Z,17.30
2019-02-17T14:58:05.800Z,17.20
2019-02-17T15:00:38.536Z,17.20
2019-02-17T15:03:08.920Z,17.20
2019-02-17T15:05:40.486Z,17.20
2019-02-17T15:08:17.798Z,17.10
2019-02-17T15:10:49.276Z,17.10
2019-02-17T15:13:51.905Z,17.00
2019-02-17T15:16:26.145Z,17.00
2019-02-17T15:19:05.714Z,16.80
2019-02-17T15:21:53.826Z,16.70
2019-02-17T15:24:23.340Z,16.70
2019-02-17T15:27:03.471Z,16.70
2019-02-17T15:29:43.205Z,16.60
2019-02-17T15:32:14.730Z,16.40
2019-02-17T15:34:44.254Z,16.40
2019-02-17T15:37:13.781Z,16.20
2019-02-17T15:39:43.623Z,16.30
2019-02-17T15:42:13.189Z,16.20
2019-02-17T15:44:42.691Z,16.10
2019-02-17T15:47:12.864Z,16.10
2019-02-17T15:49:42.391Z,16.00
2019-02-17T15:52:12.268Z,16.00
2019-02-17T15:54:42.076Z,16.00
2019-02-17T15:57:11.645Z,16.00
2019-02-17T15:59:41.176Z,15.90
2019-02-17T16:02:10.972Z,15.80
2019-02-17T16:04:41.541Z,15.70
2019-02-17T16:07:11.065Z,15.70
2019-02-17T16:09:41.672Z,15.60
2019-02-17T16:12:11.214Z,15.60
2019-02-17T16:14:41.965Z,15.50
2019-02-17T16:17:11.766Z,15.40
2019-02-17T16:19:42.963Z,15.30
2019-02-17T16:22:12.465Z,15.20
2019-02-17T16:24:41.999Z,15.10
2019-02-17T16:27:11.762Z,14.90
2019-02-17T16:29:41.363Z,14.80
2019-02-17T16:32:10.881Z,14.70
2019-02-17T16:34:40.500Z,14.50
2019-02-17T16:37:10.021Z,14.40
2019-02-17T16:39:40.548Z,14.20
2019-02-17T16:42:10.116Z,14.00
2019-02-17T16:44:39.673Z,13.80
2019-02-17T16:47:09.360Z,13.70
2019-02-17T16:49:38.895Z,13.50
2019-02-17T16:52:08.403Z,13.30
2019-02-17T16:54:37.897Z,13.10
2019-02-17T16:57:07.996Z,13.00
2019-02-17T16:59:37.619Z,12.80
2019-02-17T17:02:07.397Z,12.70
2019-02-17T17:04:37.033Z,12.50
2019-02-17T17:07:07.155Z,12.40
2019-02-17T17:09:36.653Z,12.20
2019-02-17T17:12:06.530Z,12.00
2019-02-17T17:14:36.109Z,11.90
2019-02-17T17:17:05.636Z,11.70
2019-02-17T17:19:35.160Z,11.60
2019-02-17T17:22:04.720Z,11.50
2019-02-17T17:24:34.480Z,11.30
2019-02-17T17:27:04.007Z,11.10
2019-02-17T17:29:33.652Z,11.00
2019-02-17T17:32:03.324Z,10.90
2019-02-17T17:34:34.232Z,10.80
2019-02-17T17:37:03.839Z,10.70
2019-02-17T17:39:33.356Z,10.60
2019-02-17T17:42:04.027Z,10.40
2019-02-17T17:44:34.495Z,10.30
2019-02-17T17:47:04.329Z,10.20
2019-02-17T17:49:33.896Z,10.10
2019-02-17T17:52:04.442Z,10.00
2019-02-17T17:54:34.065Z,9.90
2019-02-17T17:57:03.573Z,9.80
2019-02-17T17:59:33.106Z,9.80
2019-02-17T18:02:02.605Z,9.60
2019-02-17T18:04:32.234Z,9.50
2019-02-17T18:07:01.784Z,9.40
2019-02-17T18:09:31.421Z,9.30
2019-02-17T18:12:01.929Z,9.30
2019-02-17T18:14:31.428Z,9.20
2019-02-17T18:17:01.329Z,9.10
2019-02-17T18:19:30.926Z,9.00
2019-02-17T18:22:00.546Z,8.80
2019-02-17T18:24:30.066Z,8.70
2019-02-17T18:26:59.656Z,8.60
2019-02-17T18:29:29.195Z,8.50
2019-02-17T18:31:58.692Z,8.40
2019-02-17T18:34:28.210Z,8.40
2019-02-17T18:36:57.834Z,8.40
2019-02-17T18:39:27.341Z,8.50
2019-02-17T18:41:58.828Z,8.50
2019-02-17T18:44:28.702Z,8.70
2019-02-17T18:46:58.275Z,8.70
2019-02-17T18:49:27.906Z,8.80
2019-02-17T18:51:58.616Z,8.90
2019-02-17T18:54:28.142Z,9.00
2019-02-17T18:56:57.702Z,8.90
2019-02-17T18:59:27.298Z,8.90
2019-02-17T19:01:56.810Z,8.80
2019-02-17T19:04:27.453Z,8.70
2019-02-17T19:06:56.958Z,8.60
2019-02-17T19:09:26.613Z,8.50
2019-02-17T19:11:56.223Z,8.40
2019-02-17T19:14:25.837Z,8.30
2019-02-17T19:16:55.356Z,8.10
2019-02-17T19:19:25.142Z,7.90
2019-02-17T19:21:55.643Z,7.90
2019-02-17T19:24:29.193Z,7.80
2019-02-17T19:26:58.707Z,7.70
2019-02-17T19:29:28.252Z,7.60
2019-02-17T19:31:58.113Z,7.60
2019-02-17T19:34:27.851Z,7.50
2019-02-17T19:36:57.524Z,7.50
2019-02-17T19:39:28.238Z,7.40
2019-02-17T19:41:57.763Z,7.40
2019-02-17T19:44:28.105Z,7.30
2019-02-17T19:46:57.697Z,7.30
2019-02-17T19:49:27.307Z,7.30
2019-02-17T19:51:56.828Z,7.30
2019-02-17T19:54:27.234Z,7.20
2019-02-17T19:56:56.788Z,7.20
2019-02-17T19:59:26.380Z,7.20
2019-02-17T20:01:55.949Z,7.30
2019-02-17T20:04:27.241Z,7.30
2019-02-17T20:06:56.827Z,7.50
2019-02-17T20:09:26.432Z,7.70
2019-02-17T20:11:56.477Z,7.90
2019-02-17T20:14:26.021Z,8.00
2019-02-17T20:16:55.849Z,8.10
2019-02-17T20:19:25.808Z,8.20
2019-02-17T20:21:55.489Z,8.20
2019-02-17T20:24:26.074Z,8.30
2019-02-17T20:26:55.653Z,8.40
2019-02-17T20:29:25.225Z,8.50
2019-02-17T20:31:55.114Z,8.50
2019-02-17T20:34:25.093Z,8.60
2019-02-17T20:36:54.638Z,8.70
2019-02-17T20:39:25.187Z,8.70
2019-02-17T20:41:55.322Z,8.80
2019-02-17T20:44:25.050Z,8.80
2019-02-17T20:46:54.644Z,8.80
2019-02-17T20:49:24.231Z,8.70
2019-02-17T20:51:53.804Z,8.70
2019-02-17T20:54:23.390Z,8.70
2019-02-17T20:56:53.376Z,8.70
2019-02-17T20:59:23.232Z,8.70
2019-02-17T21:01:53.964Z,8.70
2019-02-17T21:04:24.728Z,8.70
2019-02-17T21:06:54.525Z,8.60
2019-02-17T21:09:24.290Z,8.60
2019-02-17T21:11:57.533Z,8.50
2019-02-17T21:14:29.001Z,8.50
2019-02-17T21:16:58.703Z,8.50
2019-02-17T21:19:28.374Z,8.50
2019-02-17T21:22:00.245Z,8.40
2019-02-17T21:24:29.779Z,8.30
2019-02-17T21:27:00.024Z,8.30
2019-02-17T21:29:31.408Z,8.30
2019-02-17T21:32:02.650Z,8.30
2019-02-17T21:34:34.193Z,8.30
2019-02-17T21:37:04.362Z,8.30
2019-02-17T21:39:34.536Z,8.20
2019-02-17T21:42:05.407Z,8.20
2019-02-17T21:44:38.133Z,8.30
2019-02-17T21:47:07.937Z,8.30
2019-02-17T21:49:38.914Z,8.20
2019-02-17T21:52:09.278Z,8.20
2019-02-17T21:54:38.961Z,8.30
2019-02-17T21:57:08.477Z,8.30
2019-02-17T21:59:37.990Z,8.30
2019-02-17T22:02:08.209Z,8.30
2019-02-17T22:04:37.763Z,8.30
2019-02-17T22:07:07.363Z,8.30
2019-02-17T22:09:36.896Z,8.20
2019-02-17T22:12:06.382Z,8.20
2019-02-17T22:14:35.920Z,8.10
2019-02-17T22:17:06.146Z,8.10
2019-02-17T22:19:35.683Z,8.10
2019-02-17T22:22:05.405Z,8.00
2019-02-17T22:24:34.935Z,8.00
2019-02-17T22:27:04.540Z,8.00
2019-02-17T22:29:34.716Z,8.00
2019-02-17T22:32:06.050Z,8.00
2019-02-17T22:34:37.052Z,8.00
2019-02-17T22:37:07.629Z,8.00
2019-02-17T22:39:38.239Z,8.00
2019-02-17T22:42:08.549Z,7.90
2019-02-17T22:44:38.416Z,7.90
2019-02-17T22:47:07.925Z,7.80
2019-02-17T22:49:39.005Z,7.80
2019-02-17T22:52:09.196Z,7.80
2019-02-17T22:54:38.793Z,7.70
2019-02-17T22:57:08.756Z,7.80
2019-02-17T22:59:38.348Z,7.70
2019-02-17T23:02:08.278Z,7.70
2019-02-17T23:04:38.177Z,7.60
2019-02-17T23:07:07.855Z,7.60
2019-02-17T23:09:37.351Z,7.60
2019-02-17T23:12:07.331Z,7.50
2019-02-17T23:14:36.876Z,7.50
2019-02-17T23:17:06.402Z,7.50
2019-02-17T23:19:37.940Z,7.40
2019-02-17T23:22:07.898Z,7.40
2019-02-17T23:24:37.611Z,7.40
2019-02-17T23:27:07.364Z,7.40
2019-02-17T23:29:36.943Z,7.30
2019-02-17T23:32:08.159Z,7.20
2019-02-17T23:34:39.142Z,7.10
2019-02-17T23:37:10.494Z,7.00
2019-02-17T23:39:40.380Z,6.90
2019-02-17T23:42:10.919Z,6.90
2019-02-17T23:44:41.265Z,6.80
2019-02-17T23:47:11.563Z,6.70
2019-02-17T23:49:42.140Z,6.60
2019-02-17T23:52:12.405Z,6.50
2019-02-17T23:54:42.197Z,6.30
2019-02-17T23:57:11.863Z,6.30
2019-02-17T23:59:41.356Z,6.20
